UTDD Airport Information

Runway Information
Runway 09 Length 10170 ft width 147 ft
Elevation 2575 ft Threshold 0 ft Heading 90
Runway 27 Length 10170 ft Width 147 ft
Elevation 2543 ft Threshold 1335 ft Heading 270
Airport Frequencies
Type APP Name APP Frequency 127.1 MHZ
Type ATIS Name ATIS Frequency 126.2 MHZ
Type GND Name GND Frequency 121.7 MHZ
Type TWR Name TWR Frequency 119.2 MHZ
Airport Navaids
Type VOR-DME Name Dushanbe Frequency 113600 KHZ
Type NDB Name Dushanbe Frequency 372 KHZ
Type NDB Name Dushanbe Frequency 420 KHZ
Airport Weather Information & NOTAM
ADDS - METARS form results

(0350 UTC 25 March 2019)
Data provider http://aviationweather.gov/metar/data/
 
METAR text: UTDD 250330Z VRB02MPS 9999 NSC 14/M00 Q1020 R09/D NOSIG RMK QFE697/0929
Conditions at: UTDD (DUSHANBE , TJ) observed 0330 UTC 25 March 2019
Temperature: 14.0°C (57°F)
Dewpoint: 0.0°C (32°F) [RH = 38%]
Pressure (altimeter): 30.12 inches Hg (1020.0 mb)
Winds: variable direction winds at 5 MPH (4 knots; 2.1 m/s)
Visibility: 6 or more miles (10+ km)
Ceiling: at least 12,000 feet AGL
Clouds: sky clear below 12,000 feet AGL
Weather: no significant weather observed at this time

METAR text: UTDD 250300Z VRB02MPS 9999 NSC 13/01 Q1020 R09/D NOSIG RMK QFE696/0929
Conditions at: UTDD (DUSHANBE , TJ) observed 0300 UTC 25 March 2019
Temperature: 13.0°C (55°F)
Dewpoint: 1.0°C (34°F) [RH = 44%]
Pressure (altimeter): 30.12 inches Hg (1020.0 mb)
Winds: variable direction winds at 5 MPH (4 knots; 2.1 m/s)
Visibility: 6 or more miles (10+ km)
Ceiling: at least 12,000 feet AGL
Clouds: sky clear below 12,000 feet AGL
Weather: no significant weather observed at this time

Forecast for: UTDD (DUSHANBE , TJ)
Text: TAF UTDD 250300Z 2504/2516 VRB02MPS 6000 SCT066CB BKN100
Forecast period: 0400 to 1600 UTC 25 March 2019
Forecast type: FROM: standard forecast or significant change
Winds: variable direction winds at 5 MPH (4 knots; 2.1 m/s)
Visibility: 4 miles (6 km)
Ceiling: 10000 feet AGL
Clouds: scattered clouds at 6600 feet AGL
broken clouds at 10000 feet AGL
Weather: no significant weather forecast for this period
Text: TEMPO 2506/2516 10005MPS
Forecast period: 0600 to 1600 UTC 25 March 2019
Forecast type: TEMPORARY: The following changes expected for less than half the time period
Winds: from the E (100 degrees) at 12 MPH (10 knots; 5.1 m/s)
Visibility: missing
Ceiling: unknown
Clouds: missing
Weather: no significant weather forecast for this period